Portada
METAR-TAF:

METAR-TAF

Aeropuertos :

Destin-Fort Walton Beach Airport

Destin, Florida, Estados Unidos

latitud: 30-23-36N, longitud: 086-28-03W, altitud: 6 m

Observación

El informe se hizo hace 56 minutos, a las 17:53 UTC
Viento 4 kt con dirección variable
Temperatura 13°C
Humedad 82%
Presión 1015 hPa
Visibilidad: 16.1 km
Cielo despejado

METAR: KDTS 271753Z VRB04KT 10SM CLR 13/10 A2997 RMK AO2 SLP148 60001 T01330100 10133 20094 58009

Hora: 12:49 (18:49 UTC)


TAF: falta

Observaciones y pronósticos meteorológicos de más de 4000 aeropuertos (mensajes METAR y TAF).

Los puntos amarillos y rojos representan las estaciones disponibles.

Ponga el ratón en el punto deseado para ver el nombre de la estación.

Haga clic para ver las observaciones y los pronósticos meteorológicos.

Para cambiar el mapa : haga clic en los botones verdes con una cruz de color negro para hacer un zoom, en el botón verde con un guión para alejar o en las flechas verdes para mapas adyacentes.


METAR-TAF: